Time;durP1;ratioP1;P1;durP2;ratioP2;P2;SDS_P1;SDS_P2;PMS_P1;PMS_P2;Temp;Humidity;BMP_temperature;BMP_pressure;BME280_temperature;BME280_humidity;BME280_pressure;Samples;Min_cycle;Max_cycle;Signal;HPM_P1;HPM_P2
2023/01/25 00:00:44;;;;;;;68.38;55.05;;;7.80;90.50;;;;;;5071249;28;20032;-64
2023/01/25 00:03:09;;;;;;;68.85;56.47;;;7.80;90.90;;;;;;5070739;28;20016;-63
2023/01/25 00:05:35;;;;;;;71.35;56.05;;;7.90;90.60;;;;;;5070882;28;20441;-63
2023/01/25 00:08:00;;;;;;;73.00;57.83;;;8.00;90.40;;;;;;5071167;28;20355;-63
2023/01/25 00:10:26;;;;;;;70.55;56.65;;;8.00;90.30;;;;;;5070535;28;20012;-63
2023/01/25 00:12:52;;;;;;;70.90;57.10;;;8.00;90.40;;;;;;5071589;28;20028;-68
2023/01/25 00:15:17;;;;;;;73.72;57.88;;;8.00;90.40;;;;;;5072118;28;20055;-63
2023/01/25 00:17:43;;;;;;;69.88;55.90;;;8.00;90.40;;;;;;5072058;28;20025;-63
2023/01/25 00:20:09;;;;;;;70.38;55.33;;;8.00;90.40;;;;;;5072075;28;20025;-67
2023/01/25 00:22:35;;;;;;;67.82;55.45;;;8.00;90.40;;;;;;5071916;28;20091;-63
2023/01/25 00:25:00;;;;;;;68.32;55.25;;;8.00;90.40;;;;;;5071545;28;20485;-64
2023/01/25 00:27:26;;;;;;;69.50;55.83;;;8.10;90.50;;;;;;5072166;28;20016;-63
2023/01/25 00:29:51;;;;;;;71.07;57.67;;;7.90;90.50;;;;;;5071862;28;20070;-64
2023/01/25 00:32:20;;;;;;;72.10;57.60;;;7.90;90.50;;;;;;5056389;28;20107;-63
2023/01/25 00:34:45;;;;;;;71.65;57.38;;;7.80;90.70;;;;;;5075819;28;20105;-63
2023/01/25 00:37:22;;;;;;;70.18;55.90;;;7.80;90.80;;;;;;5075516;28;20066;-65
2023/01/25 00:39:48;;;;;;;72.35;56.97;;;7.90;90.90;;;;;;5075853;28;20496;-64
2023/01/25 00:42:15;;;;;;;70.32;55.58;;;7.80;90.70;;;;;;5075491;28;20021;-63
2023/01/25 00:44:41;;;;;;;68.72;55.53;;;7.70;90.80;;;;;;5075807;28;20033;-66
2023/01/25 00:47:07;;;;;;;70.63;54.40;;;7.70;90.80;;;;;;5075241;28;20387;-64
2023/01/25 00:49:33;;;;;;;73.40;59.22;;;7.90;90.70;;;;;;5075460;28;20112;-64
2023/01/25 00:51:59;;;;;;;72.55;57.42;;;7.90;90.60;;;;;;5074985;28;20107;-64
2023/01/25 00:54:25;;;;;;;73.43;57.70;;;7.80;90.60;;;;;;5075506;28;20056;-64
2023/01/25 00:56:52;;;;;;;72.28;57.83;;;7.90;90.50;;;;;;5075368;28;20034;-63
2023/01/25 00:59:19;;;;;;;73.03;57.40;;;7.80;90.50;;;;;;5075449;28;20068;-64
2023/01/25 01:01:44;;;;;;;71.13;56.65;;;7.80;90.70;;;;;;5075171;28;20470;-63
2023/01/25 01:04:10;;;;;;;69.47;56.50;;;7.90;90.70;;;;;;5075103;28;20063;-64
2023/01/25 01:06:39;;;;;;;70.32;55.88;;;7.90;90.50;;;;;;5074926;28;20016;-64
2023/01/25 01:09:07;;;;;;;72.28;56.92;;;8.00;90.30;;;;;;5075211;28;20025;-63
2023/01/25 01:11:33;;;;;;;69.03;54.90;;;8.00;90.20;;;;;;5074857;28;20024;-63
2023/01/25 01:13:59;;;;;;;72.65;57.95;;;7.90;90.20;;;;;;5075100;28;20039;-63
2023/01/25 01:16:25;;;;;;;74.57;59.00;;;7.90;90.30;;;;;;5075047;28;20021;-64
2023/01/25 01:18:50;;;;;;;73.43;58.42;;;7.80;90.40;;;;;;5074675;28;20025;-63
2023/01/25 01:21:16;;;;;;;71.93;57.13;;;7.60;90.60;;;;;;5074893;28;20074;-63
2023/01/25 01:23:42;;;;;;;72.45;55.85;;;7.70;90.80;;;;;;5074947;28;20016;-64
2023/01/25 01:26:11;;;;;;;75.65;60.17;;;7.80;90.50;;;;;;5074388;28;20036;-63
2023/01/25 01:28:38;;;;;;;75.40;59.60;;;7.80;90.30;;;;;;5075031;28;20062;-63
2023/01/25 01:31:10;;;;;;;77.85;60.40;;;7.80;90.40;;;;;;5074628;28;20063;-63
2023/01/25 01:33:35;;;;;;;72.22;58.17;;;7.90;90.30;;;;;;5074440;28;20445;-63
2023/01/25 01:36:15;;;;;;;74.93;58.03;;;7.80;90.30;;;;;;5074838;28;20017;-62
2023/01/25 01:38:41;;;;;;;73.88;58.88;;;7.70;90.60;;;;;;5074824;28;20036;-64
2023/01/25 01:41:08;;;;;;;75.35;59.10;;;7.60;90.60;;;;;;5075055;28;20021;-63
2023/01/25 01:43:34;;;;;;;78.63;61.25;;;7.60;90.70;;;;;;5073746;28;20025;-67
2023/01/25 01:46:02;;;;;;;76.60;59.67;;;7.60;90.70;;;;;;5074638;28;20528;-68
2023/01/25 01:48:49;;;;;;;76.53;60.58;;;7.70;90.70;;;;;;5074098;28;20469;-68
2023/01/25 01:51:42;;;;;;;74.18;57.90;;;7.70;90.50;;;;;;5074313;28;20059;-68
2023/01/25 01:54:13;;;;;;;74.15;57.67;;;7.70;90.60;;;;;;5073980;28;20037;-68
2023/01/25 01:56:59;;;;;;;77.85;59.63;;;7.80;90.50;;;;;;5074411;28;20009;-64
2023/01/25 01:59:32;;;;;;;76.80;59.92;;;7.80;90.10;;;;;;5073901;28;20040;-65
2023/01/25 02:01:58;;;;;;;75.20;58.50;;;7.70;90.20;;;;;;5074068;28;20021;-65
2023/01/25 02:04:25;;;;;;;74.38;58.67;;;7.60;90.40;;;;;;5073781;28;20085;-68
2023/01/25 02:06:57;;;;;;;78.13;60.10;;;7.60;90.30;;;;;;5074104;28;20029;-65
2023/01/25 02:09:24;;;;;;;74.37;58.47;;;7.60;90.40;;;;;;5074047;28;20031;-66
2023/01/25 02:11:51;;;;;;;77.25;59.35;;;7.70;90.50;;;;;;5073920;28;20547;-68
2023/01/25 02:14:18;;;;;;;77.65;60.33;;;7.60;90.50;;;;;;5073783;28;20024;-66
2023/01/25 02:16:44;;;;;;;76.45;59.78;;;7.80;90.30;;;;;;5073931;28;20478;-66
2023/01/25 02:19:16;;;;;;;79.13;62.40;;;7.80;90.30;;;;;;5073339;28;20038;-69
2023/01/25 02:21:45;;;;;;;79.00;60.65;;;7.70;90.30;;;;;;5073802;28;20017;-68
2023/01/25 02:24:26;;;;;;;80.57;60.58;;;7.70;90.30;;;;;;5073658;28;20032;-68
2023/01/25 02:26:52;;;;;;;76.70;59.40;;;7.70;90.40;;;;;;5074048;28;20423;-67
2023/01/25 02:29:21;;;;;;;79.57;61.38;;;7.70;90.30;;;;;;5073406;28;20500;-68
2023/01/25 02:31:48;;;;;;;79.90;60.75;;;7.60;90.30;;;;;;5073166;28;20063;-69
2023/01/25 02:34:14;;;;;;;77.57;60.85;;;7.60;90.40;;;;;;5073312;28;20021;-68
2023/01/25 02:36:40;;;;;;;78.22;61.45;;;7.60;90.40;;;;;;5073565;28;20027;-64
2023/01/25 02:39:14;;;;;;;78.82;59.60;;;7.70;90.30;;;;;;5073345;28;20029;-65
2023/01/25 02:41:42;;;;;;;79.07;62.00;;;7.70;90.20;;;;;;5073415;28;20056;-66
2023/01/25 02:44:29;;;;;;;78.55;59.45;;;7.70;90.30;;;;;;5073032;28;20021;-64
2023/01/25 02:46:55;;;;;;;77.68;60.92;;;7.80;90.30;;;;;;5072866;28;20029;-65
2023/01/25 02:49:21;;;;;;;81.68;60.72;;;7.80;90.20;;;;;;5073175;28;20017;-68
2023/01/25 02:51:50;;;;;;;81.45;62.58;;;7.70;90.20;;;;;;5073339;28;20036;-68
2023/01/25 02:54:17;;;;;;;80.60;63.15;;;7.50;90.30;;;;;;5072673;28;20493;-68
2023/01/25 02:56:43;;;;;;;77.05;60.72;;;7.60;90.30;;;;;;5072594;28;20039;-66
2023/01/25 02:59:12;;;;;;;78.60;62.35;;;7.60;90.30;;;;;;5072907;28;20028;-67
2023/01/25 03:01:39;;;;;;;77.32;60.08;;;7.60;90.20;;;;;;5072861;28;20017;-66
2023/01/25 03:04:05;;;;;;;81.28;61.50;;;7.60;90.10;;;;;;5054699;28;20432;-67
2023/01/25 03:06:32;;;;;;;77.60;59.78;;;7.70;90.20;;;;;;5073022;28;20031;-67
2023/01/25 03:08:57;;;;;;;79.35;59.78;;;7.70;90.10;;;;;;5072890;28;20075;-69
2023/01/25 03:11:23;;;;;;;77.60;61.58;;;7.70;90.00;;;;;;5072742;28;20486;-68
2023/01/25 03:13:48;;;;;;;78.63;59.78;;;7.60;89.70;;;;;;5072782;28;20037;-67
2023/01/25 03:16:14;;;;;;;76.63;60.15;;;7.60;89.60;;;;;;5061811;28;20436;-68
2023/01/25 03:18:40;;;;;;;81.53;60.50;;;7.50;90.00;;;;;;5034653;28;20108;-64
2023/01/25 03:21:09;;;;;;;83.00;61.25;;;7.40;90.20;;;;;;5051559;28;20107;-68
2023/01/25 03:23:35;;;;;;;79.72;59.22;;;7.30;90.40;;;;;;5051830;28;20040;-68
2023/01/25 03:26:08;;;;;;;82.68;60.05;;;7.30;90.30;;;;;;5052812;28;20032;-64
2023/01/25 03:28:33;;;;;;;80.13;60.78;;;7.50;90.30;;;;;;5054147;28;20501;-68
2023/01/25 03:30:59;;;;;;;76.57;58.05;;;7.40;90.30;;;;;;5061307;28;20021;-69
2023/01/25 03:33:25;;;;;;;82.68;60.78;;;7.50;90.20;;;;;;5051976;28;20079;-69
2023/01/25 03:35:54;;;;;;;76.93;58.88;;;7.40;90.20;;;;;;5051322;28;20029;-69
2023/01/25 03:38:20;;;;;;;81.60;62.78;;;7.50;90.20;;;;;;5052348;28;20025;-69
2023/01/25 03:40:46;;;;;;;79.20;61.38;;;7.40;90.30;;;;;;5052554;28;20048;-65
2023/01/25 03:43:12;;;;;;;84.70;62.92;;;7.50;90.30;;;;;;5052153;28;20082;-66
2023/01/25 03:45:37;;;;;;;82.05;59.95;;;7.50;90.10;;;;;;5052129;28;20486;-69
2023/01/25 03:48:03;;;;;;;80.10;60.95;;;7.50;90.10;;;;;;5052548;28;20226;-63
2023/01/25 03:50:29;;;;;;;77.93;59.47;;;7.50;90.10;;;;;;5052116;28;20013;-65
2023/01/25 03:53:00;;;;;;;79.40;59.72;;;7.50;90.00;;;;;;5052236;28;20398;-66
2023/01/25 03:55:26;;;;;;;85.78;60.83;;;7.50;90.10;;;;;;5052320;28;20478;-67
2023/01/25 03:57:52;;;;;;;84.30;62.85;;;7.50;90.00;;;;;;5052436;28;20121;-64
2023/01/25 04:00:18;;;;;;;83.78;63.15;;;7.50;90.00;;;;;;5051815;28;20052;-67
2023/01/25 04:02:45;;;;;;;84.05;64.40;;;7.50;90.10;;;;;;5052679;28;20029;-65
2023/01/25 04:05:10;;;;;;;83.45;62.88;;;7.40;90.30;;;;;;5052084;28;20025;-70
2023/01/25 04:07:36;;;;;;;88.05;63.40;;;7.40;90.30;;;;;;5055128;28;20087;-63
2023/01/25 04:10:03;;;;;;;83.50;63.60;;;7.40;90.30;;;;;;5056195;28;20564;-63
2023/01/25 04:12:28;;;;;;;83.80;63.90;;;7.30;90.40;;;;;;5056339;28;20029;-65
2023/01/25 04:14:54;;;;;;;84.40;63.22;;;7.40;90.50;;;;;;5055929;28;20028;-64
2023/01/25 04:17:19;;;;;;;84.32;61.40;;;7.40;90.30;;;;;;5056133;28;20434;-66
2023/01/25 04:19:45;;;;;;;83.78;63.15;;;7.40;90.40;;;;;;5055821;28;20521;-66
2023/01/25 04:22:11;;;;;;;85.43;62.65;;;7.40;90.20;;;;;;5055979;28;20029;-67
2023/01/25 04:24:37;;;;;;;85.80;63.88;;;7.40;90.20;;;;;;5056028;28;20112;-64
2023/01/25 04:27:03;;;;;;;84.57;62.42;;;7.40;90.30;;;;;;5055825;28;20145;-64
2023/01/25 04:29:29;;;;;;;85.65;62.25;;;7.40;90.20;;;;;;5055800;28;20037;-68
2023/01/25 04:31:54;;;;;;;88.20;64.68;;;7.40;90.30;;;;;;5055743;28;20029;-65
2023/01/25 04:34:20;;;;;;;87.22;64.75;;;7.40;90.30;;;;;;5055961;28;20044;-65
2023/01/25 04:36:45;;;;;;;91.78;65.47;;;7.40;90.30;;;;;;5055581;28;20501;-64
2023/01/25 04:39:11;;;;;;;84.95;62.88;;;7.30;90.30;;;;;;5055828;28;20044;-64
2023/01/25 04:41:36;;;;;;;92.38;65.10;;;7.30;90.30;;;;;;5055735;28;20466;-65
2023/01/25 04:44:02;;;;;;;88.40;65.05;;;7.20;90.40;;;;;;5055386;28;20025;-65
2023/01/25 04:46:27;;;;;;;88.60;65.45;;;7.20;90.60;;;;;;5055508;28;20021;-64
2023/01/25 04:48:53;;;;;;;88.05;64.85;;;7.30;90.40;;;;;;5055500;28;20025;-66
2023/01/25 04:51:19;;;;;;;92.15;66.47;;;7.30;90.40;;;;;;5055076;28;20031;-63
2023/01/25 04:53:45;;;;;;;90.43;66.13;;;7.30;90.40;;;;;;5055472;28;20131;-66
2023/01/25 04:56:11;;;;;;;91.22;65.75;;;7.30;90.40;;;;;;5055741;28;20494;-64
2023/01/25 04:58:36;;;;;;;88.28;64.40;;;7.30;90.30;;;;;;5055079;28;20036;-65
2023/01/25 05:01:02;;;;;;;90.95;66.57;;;7.30;90.40;;;;;;5055132;28;20013;-64
2023/01/25 05:03:28;;;;;;;89.63;65.18;;;7.30;90.40;;;;;;5055815;28;20520;-65
2023/01/25 05:05:54;;;;;;;95.93;67.05;;;7.30;90.40;;;;;;5055126;28;20033;-62
2023/01/25 05:08:19;;;;;;;90.85;66.35;;;7.30;90.40;;;;;;5055260;28;20482;-65
2023/01/25 05:10:45;;;;;;;91.82;66.03;;;7.20;90.30;;;;;;5054805;28;20538;-65
2023/01/25 05:13:11;;;;;;;86.30;63.10;;;7.30;90.50;;;;;;5054811;28;20040;-64
2023/01/25 05:15:36;;;;;;;88.68;64.88;;;7.30;90.40;;;;;;5055150;28;20066;-65
2023/01/25 05:18:02;;;;;;;90.55;67.10;;;7.20;90.40;;;;;;5054460;28;20044;-65
2023/01/25 05:20:28;;;;;;;92.13;64.70;;;7.10;90.60;;;;;;5054717;28;20024;-65
2023/01/25 05:22:54;;;;;;;90.65;64.63;;;7.20;90.50;;;;;;5054818;28;20029;-64
2023/01/25 05:28:05;;;;;;;93.80;65.70;;;7.00;90.70;;;;;;5055132;28;20048;-64
2023/01/25 05:30:31;;;;;;;92.78;67.68;;;7.10;90.90;;;;;;5054806;28;20092;-63
2023/01/25 05:32:56;;;;;;;90.03;64.22;;;7.10;90.60;;;;;;5054471;28;20044;-64
2023/01/25 05:35:22;;;;;;;88.88;63.85;;;7.10;90.60;;;;;;5054733;28;20052;-62
2023/01/25 05:37:48;;;;;;;85.85;63.10;;;7.00;90.50;;;;;;5054496;28;20052;-65
2023/01/25 05:40:13;;;;;;;87.50;62.70;;;7.00;90.60;;;;;;5054368;28;20114;-63
2023/01/25 05:42:39;;;;;;;84.43;60.25;;;7.00;90.70;;;;;;5054409;28;20059;-63
2023/01/25 05:45:05;;;;;;;86.35;63.08;;;7.10;90.60;;;;;;5054439;28;20048;-63
2023/01/25 05:47:31;;;;;;;75.50;53.17;;;7.10;90.50;;;;;;5054250;28;20482;-65
2023/01/25 05:49:56;;;;;;;71.88;53.55;;;7.00;92.00;;;;;;5054543;28;20026;-64
2023/01/25 05:52:22;;;;;;;69.95;51.85;;;7.10;91.90;;;;;;5054257;28;20029;-65
2023/01/25 05:54:48;;;;;;;73.32;51.72;;;7.10;91.90;;;;;;5054267;28;20465;-65
2023/01/25 05:57:14;;;;;;;78.47;56.92;;;7.20;91.90;;;;;;5054120;28;20484;-66
2023/01/25 05:59:39;;;;;;;72.65;54.85;;;7.30;91.70;;;;;;5054152;28;20040;-66
2023/01/25 06:02:05;;;;;;;73.80;54.70;;;7.30;91.60;;;;;;5062888;28;20459;-65
2023/01/25 06:04:31;;;;;;;71.43;53.85;;;7.40;91.70;;;;;;5055414;28;20111;-66
2023/01/25 06:06:56;;;;;;;70.82;54.13;;;7.40;91.70;;;;;;5053044;28;20166;-64
2023/01/25 06:09:22;;;;;;;69.80;53.17;;;7.40;91.50;;;;;;5052245;28;20039;-67
2023/01/25 06:11:48;;;;;;;70.65;54.13;;;7.40;91.60;;;;;;5053712;28;20052;-65
2023/01/25 06:14:14;;;;;;;67.55;53.63;;;7.50;91.50;;;;;;5053863;28;20033;-66
2023/01/25 06:16:40;;;;;;;68.15;51.13;;;7.50;91.50;;;;;;5053988;28;20021;-67
2023/01/25 06:19:06;;;;;;;69.07;52.83;;;7.50;91.40;;;;;;5053677;28;20061;-65
2023/01/25 06:21:35;;;;;;;65.85;52.25;;;7.50;91.50;;;;;;5053690;28;20428;-65
2023/01/25 06:24:02;;;;;;;67.95;53.03;;;7.60;91.80;;;;;;5053487;28;20087;-65
2023/01/25 06:26:27;;;;;;;74.05;55.35;;;7.50;91.40;;;;;;5053461;28;20033;-63
2023/01/25 06:28:53;;;;;;;80.75;59.97;;;7.60;91.00;;;;;;5053289;28;20025;-66
2023/01/25 06:31:19;;;;;;;83.90;59.88;;;7.50;90.30;;;;;;5053573;28;20033;-66
2023/01/25 06:33:49;;;;;;;79.40;58.80;;;7.50;90.20;;;;;;5073228;28;20032;-64
2023/01/25 06:36:18;;;;;;;73.18;56.83;;;7.40;90.20;;;;;;5073535;28;20044;-62
2023/01/25 06:38:49;;;;;;;75.68;55.78;;;7.30;90.30;;;;;;5068072;28;20033;-64
2023/01/25 06:41:15;;;;;;;75.60;56.63;;;7.20;90.40;;;;;;5065033;28;20025;-62
2023/01/25 06:43:41;;;;;;;77.70;55.95;;;7.30;90.40;;;;;;5072402;28;20024;-62
2023/01/25 06:46:08;;;;;;;73.22;54.38;;;7.30;90.30;;;;;;5065982;28;20115;-62
2023/01/25 06:48:34;;;;;;;72.70;55.95;;;7.30;90.30;;;;;;5067608;28;20032;-62
2023/01/25 06:51:03;;;;;;;75.57;57.22;;;7.40;90.20;;;;;;5072991;28;20043;-63
2023/01/25 06:53:30;;;;;;;74.43;55.78;;;7.40;90.10;;;;;;5072765;28;20495;-62
2023/01/25 06:55:57;;;;;;;77.95;57.55;;;7.40;90.20;;;;;;5055169;28;20032;-62
2023/01/25 06:58:22;;;;;;;75.70;56.35;;;7.30;90.30;;;;;;5069145;28;20500;-62
2023/01/25 07:00:48;;;;;;;75.63;57.05;;;7.20;90.40;;;;;;5063457;28;20100;-61
2023/01/25 07:03:13;;;;;;;79.57;58.05;;;7.30;90.30;;;;;;5068372;28;20111;-61
2023/01/25 07:05:39;;;;;;;72.35;55.17;;;7.30;90.30;;;;;;5070785;28;20028;-61
2023/01/25 07:08:04;;;;;;;76.07;54.80;;;7.30;90.30;;;;;;5068154;28;20046;-62
2023/01/25 07:10:30;;;;;;;73.18;53.20;;;7.30;90.30;;;;;;5070504;28;20035;-64
2023/01/25 07:12:55;;;;;;;81.78;59.78;;;7.20;90.50;;;;;;5070602;28;20051;-66
2023/01/25 07:15:22;;;;;;;78.82;57.92;;;7.10;90.40;;;;;;5069000;28;20020;-64
2023/01/25 07:17:48;;;;;;;76.50;55.25;;;7.20;90.40;;;;;;5088098;28;20523;-62
2023/01/25 07:20:13;;;;;;;76.25;57.25;;;7.20;90.30;;;;;;5091888;28;20046;-64
2023/01/25 07:22:39;;;;;;;78.85;55.58;;;7.20;90.40;;;;;;5069867;28;20031;-64
2023/01/25 07:25:05;;;;;;;71.40;54.45;;;7.20;90.30;;;;;;5071316;28;20470;-64
2023/01/25 07:27:34;;;;;;;83.25;56.58;;;7.20;90.60;;;;;;5072564;28;20473;-63
2023/01/25 07:30:00;;;;;;;75.50;54.92;;;7.20;90.40;;;;;;5070681;28;20020;-65
2023/01/25 07:32:25;;;;;;;76.53;56.08;;;7.10;90.60;;;;;;5066820;28;20032;-63
2023/01/25 07:34:51;;;;;;;75.97;57.03;;;7.10;91.00;;;;;;5072137;28;20036;-64
2023/01/25 07:37:17;;;;;;;78.45;58.80;;;7.20;90.50;;;;;;5064325;28;20112;-64
2023/01/25 07:39:47;;;;;;;75.00;55.65;;;7.20;90.50;;;;;;5070135;28;20527;-63
2023/01/25 07:42:13;;;;;;;75.63;55.90;;;7.10;90.40;;;;;;5065762;28;20028;-64
2023/01/25 07:44:38;;;;;;;75.30;55.90;;;7.20;90.50;;;;;;5068636;28;20128;-65
2023/01/25 07:47:04;;;;;;;77.68;56.13;;;7.10;90.80;;;;;;5051024;28;20136;-64
2023/01/25 07:49:29;;;;;;;75.95;55.05;;;7.10;90.60;;;;;;5071078;28;20024;-64
2023/01/25 07:51:55;;;;;;;77.15;56.20;;;7.10;90.50;;;;;;5065971;28;20486;-64
2023/01/25 07:54:20;;;;;;;73.78;53.90;;;7.20;90.50;;;;;;5072142;28;20112;-64
2023/01/25 07:56:46;;;;;;;75.28;55.72;;;7.10;90.60;;;;;;5071918;28;20059;-64
2023/01/25 07:59:13;;;;;;;68.03;51.05;;;7.20;90.60;;;;;;5071835;28;20024;-63
2023/01/25 08:01:38;;;;;;;74.68;54.50;;;7.00;90.80;;;;;;5071800;28;20373;-64
2023/01/25 08:04:04;;;;;;;72.53;52.15;;;7.20;90.80;;;;;;5071959;28;20104;-63
2023/01/25 08:06:37;;;;;;;73.40;54.03;;;7.10;90.70;;;;;;5067209;28;20051;-64
2023/01/25 08:09:13;;;;;;;73.07;53.50;;;7.20;90.70;;;;;;5071838;28;20028;-64
2023/01/25 08:11:38;;;;;;;72.32;53.47;;;7.20;90.90;;;;;;5071837;28;20405;-63
2023/01/25 08:14:04;;;;;;;72.45;52.75;;;7.20;90.80;;;;;;5071899;28;20041;-66
2023/01/25 08:16:30;;;;;;;71.05;51.67;;;7.10;91.00;;;;;;5071914;28;20024;-65
2023/01/25 08:18:58;;;;;;;73.13;54.63;;;7.10;90.60;;;;;;5072104;28;20068;-64
2023/01/25 08:21:28;;;;;;;69.80;53.13;;;7.20;90.50;;;;;;5066270;28;20029;-67
2023/01/25 08:23:58;;;;;;;73.97;51.88;;;7.20;90.50;;;;;;5069675;28;20703;-67
2023/01/25 08:26:24;;;;;;;73.93;53.95;;;7.20;90.50;;;;;;5063472;28;20549;-66
2023/01/25 08:28:52;;;;;;;77.18;54.60;;;7.20;90.40;;;;;;5067551;28;20100;-69
2023/01/25 08:31:20;;;;;;;79.10;54.75;;;7.10;90.60;;;;;;5070638;28;20477;-64
2023/01/25 08:33:46;;;;;;;74.45;56.05;;;7.10;90.70;;;;;;5071167;28;20492;-64
2023/01/25 08:36:14;;;;;;;76.22;55.08;;;7.20;90.50;;;;;;5063516;28;20058;-65
2023/01/25 08:38:39;;;;;;;74.20;55.92;;;7.20;90.60;;;;;;5071341;28;20027;-65
2023/01/25 08:41:06;;;;;;;76.82;54.47;;;7.20;90.70;;;;;;5071422;28;20103;-68
2023/01/25 08:43:31;;;;;;;77.97;57.40;;;7.10;90.60;;;;;;5072063;28;20020;-65
2023/01/25 08:45:57;;;;;;;80.28;57.08;;;7.20;90.30;;;;;;5057228;28;20363;-66
2023/01/25 08:48:23;;;;;;;79.45;58.55;;;7.20;90.30;;;;;;5066353;28;20482;-65
2023/01/25 08:50:48;;;;;;;79.68;55.70;;;7.20;90.10;;;;;;5071140;28;20029;-65
2023/01/25 08:53:14;;;;;;;78.15;54.65;;;7.20;90.10;;;;;;5072422;28;20040;-65
2023/01/25 08:55:41;;;;;;;78.85;55.53;;;7.20;90.20;;;;;;5070611;28;20028;-64
2023/01/25 08:58:09;;;;;;;77.50;55.40;;;7.20;90.20;;;;;;5073991;28;20079;-65
2023/01/25 09:00:39;;;;;;;81.80;56.83;;;7.20;90.10;;;;;;5073757;28;20052;-68
2023/01/25 09:03:06;;;;;;;81.63;58.10;;;7.20;90.20;;;;;;5057712;28;20040;-66
2023/01/25 09:05:35;;;;;;;82.00;56.92;;;7.20;90.30;;;;;;5074277;28;20078;-68
2023/01/25 09:08:02;;;;;;;84.30;58.58;;;7.20;90.20;;;;;;5074009;28;20031;-66
2023/01/25 09:10:27;;;;;;;80.40;55.58;;;7.20;90.10;;;;;;5071830;28;20020;-66
2023/01/25 09:12:53;;;;;;;76.47;54.00;;;7.10;90.10;;;;;;5070552;28;20123;-65
2023/01/25 09:15:18;;;;;;;83.18;56.70;;;7.10;90.40;;;;;;5073696;28;20094;-65
2023/01/25 09:17:44;;;;;;;83.07;57.40;;;7.10;90.20;;;;;;5073195;28;20029;-65
2023/01/25 09:20:10;;;;;;;80.45;58.40;;;7.10;90.40;;;;;;5072021;28;20029;-66
2023/01/25 09:22:36;;;;;;;83.20;57.90;;;7.10;90.70;;;;;;5070489;28;20029;-67
2023/01/25 09:25:02;;;;;;;83.57;58.55;;;7.10;90.70;;;;;;5069556;28;20021;-67
2023/01/25 09:27:27;;;;;;;84.93;58.47;;;7.10;90.90;;;;;;5072775;28;20029;-67
2023/01/25 09:29:53;;;;;;;84.05;56.67;;;7.00;90.90;;;;;;5070758;28;20086;-61
2023/01/25 09:32:18;;;;;;;91.53;61.08;;;7.00;91.00;;;;;;5071812;28;20059;-68
2023/01/25 09:34:44;;;;;;;90.00;61.33;;;7.10;90.70;;;;;;5072140;28;20067;-65
2023/01/25 09:37:09;;;;;;;90.47;61.00;;;7.20;90.50;;;;;;5066613;28;20115;-65
2023/01/25 09:39:35;;;;;;;90.63;61.00;;;7.20;90.50;;;;;;5071509;28;20060;-65
2023/01/25 09:42:12;;;;;;;87.40;59.30;;;7.20;90.60;;;;;;5072530;28;20583;-65
2023/01/25 09:44:45;;;;;;;93.18;62.20;;;7.20;90.60;;;;;;5073770;28;20032;-68
2023/01/25 09:47:42;;;;;;;87.40;60.28;;;7.20;90.50;;;;;;5071584;28;20032;-65
2023/01/25 09:50:33;;;;;;;92.50;61.65;;;7.20;90.40;;;;;;5071883;28;20155;-68
2023/01/25 09:53:23;;;;;;;89.20;60.65;;;7.20;90.30;;;;;;5071199;28;20038;-68
2023/01/25 09:55:57;;;;;;;95.20;63.58;;;7.20;90.50;;;;;;5073510;28;20025;-67
2023/01/25 09:58:35;;;;;;;92.20;62.22;;;7.20;90.60;;;;;;5072604;28;20028;-66
2023/01/25 10:01:24;;;;;;;94.07;63.45;;;7.20;90.40;;;;;;5072977;28;20055;-65
2023/01/25 10:03:57;;;;;;;91.32;62.35;;;7.20;90.30;;;;;;5072372;28;20052;-66
2023/01/25 10:06:37;;;;;;;97.82;65.90;;;7.20;90.20;;;;;;5069438;28;20025;-66
2023/01/25 10:09:31;;;;;;;97.13;66.88;;;7.20;90.20;;;;;;5070182;28;20028;-65
2023/01/25 10:12:19;;;;;;;95.20;64.72;;;7.20;90.20;;;;;;5064326;28;20512;-64
2023/01/25 10:14:44;;;;;;;97.65;62.80;;;7.20;90.50;;;;;;5052656;28;20025;-66
2023/01/25 10:17:33;;;;;;;98.65;64.78;;;7.20;90.20;;;;;;5069118;28;20032;-65
2023/01/25 10:19:59;;;;;;;97.72;63.97;;;7.20;90.30;;;;;;5071541;28;20044;-67
2023/01/25 10:22:31;;;;;;;92.47;63.30;;;7.20;90.20;;;;;;5072596;28;20033;-66
2023/01/25 10:25:04;;;;;;;;;;;7.20;90.40;;;;;;5073150;28;20040;-64
2023/01/25 10:27:43;;;;;;;93.97;61.35;;;7.20;90.20;;;;;;5070975;28;19919;-65
2023/01/25 10:30:24;;;;;;;96.72;62.45;;;7.20;90.30;;;;;;5066920;28;20478;-65
2023/01/25 10:32:53;;;;;;;93.10;62.67;;;7.20;90.30;;;;;;5053723;28;20053;-64
2023/01/25 10:35:22;;;;;;;95.95;62.45;;;7.20;90.30;;;;;;5070846;28;20286;-65
2023/01/25 10:37:49;;;;;;;96.80;62.97;;;7.20;90.20;;;;;;5069670;28;20027;-64
2023/01/25 10:40:21;;;;;;;98.22;65.30;;;7.20;90.10;;;;;;5072416;28;20033;-63
2023/01/25 10:42:49;;;;;;;;;;;7.20;90.10;;;;;;5072120;28;20473;-63
2023/01/25 10:45:16;;;;;;;94.53;62.95;;;7.30;90.20;;;;;;5070780;28;19975;-66
2023/01/25 10:47:46;;;;;;;94.85;64.13;;;7.30;90.20;;;;;;5065887;28;20424;-64
2023/01/25 10:50:37;;;;;;;97.03;64.75;;;7.30;90.20;;;;;;5068922;28;20040;-66
2023/01/25 10:53:03;;;;;;;102.97;67.97;;;7.30;90.10;;;;;;5062725;28;20064;-69
2023/01/25 10:55:28;;;;;;;103.15;66.95;;;7.20;90.10;;;;;;5070706;28;20052;-67
2023/01/25 10:57:56;;;;;;;96.03;64.40;;;7.20;90.10;;;;;;5071789;28;20503;-66
2023/01/25 11:00:24;;;;;;;97.45;65.03;;;7.20;90.30;;;;;;5071826;28;20020;-67
2023/01/25 11:02:50;;;;;;;101.20;67.18;;;7.30;90.30;;;;;;5070369;28;20389;-66
2023/01/25 11:05:30;;;;;;;97.13;65.95;;;7.20;90.30;;;;;;5071558;28;20021;-67
2023/01/25 11:07:58;;;;;;;101.25;66.35;;;7.20;90.40;;;;;;5070584;28;20070;-65
2023/01/25 11:10:33;;;;;;;100.47;68.00;;;7.20;90.40;;;;;;5072249;28;20031;-65
2023/01/25 11:13:14;;;;;;;97.88;65.88;;;7.30;90.40;;;;;;5071774;28;20401;-68
2023/01/25 11:15:47;;;;;;;104.18;67.30;;;7.40;90.50;;;;;;5068636;28;20024;-65
2023/01/25 11:18:20;;;;;;;96.70;65.13;;;7.40;90.20;;;;;;5052071;28;20197;-66
2023/01/25 11:20:45;;;;;;;101.00;66.88;;;7.30;90.20;;;;;;5069201;28;20020;-68
2023/01/25 11:23:25;;;;;;;97.88;64.47;;;7.30;90.10;;;;;;5061249;28;20178;-68
2023/01/25 11:25:51;;;;;;;99.25;67.88;;;7.20;90.30;;;;;;5062192;28;20025;-67
2023/01/25 11:28:23;;;;;;;96.63;65.22;;;7.30;90.30;;;;;;5062866;28;20036;-67
2023/01/25 11:30:52;;;;;;;100.50;67.45;;;7.30;90.30;;;;;;5066210;28;20029;-67
2023/01/25 11:33:20;;;;;;;99.97;66.72;;;7.20;90.40;;;;;;5063668;28;20145;-67
2023/01/25 11:36:23;;;;;;;99.93;66.35;;;7.30;90.10;;;;;;5065743;28;20068;-67
2023/01/25 11:39:42;;;;;;;97.72;66.45;;;7.40;90.10;;;;;;5059828;28;20035;-67
2023/01/25 11:42:22;;;;;;;100.05;63.40;;;7.30;90.30;;;;;;4964640;28;20393;-67
2023/01/25 11:45:06;;;;;;;97.70;64.28;;;7.20;90.80;;;;;;5046932;28;20195;-68
2023/01/25 11:47:51;;;;;;;102.18;66.55;;;7.30;90.30;;;;;;5066374;28;20043;-67
2023/01/25 11:50:26;;;;;;;103.07;66.25;;;7.40;90.40;;;;;;5070864;28;20109;-67
2023/01/25 11:53:33;;;;;;;102.00;66.45;;;7.40;90.20;;;;;;5062706;28;20089;-67
2023/01/25 11:56:18;;;;;;;97.45;65.95;;;7.40;90.40;;;;;;5070223;28;20035;-67
2023/01/25 11:58:59;;;;;;;97.22;65.57;;;7.40;90.10;;;;;;5067394;28;20067;-67
2023/01/25 12:01:39;;;;;;;95.60;63.73;;;7.30;90.30;;;;;;5050312;28;20386;-67
2023/01/25 12:04:17;;;;;;;103.45;67.53;;;7.20;90.30;;;;;;5063348;28;20322;-67
2023/01/25 12:06:57;;;;;;;105.82;68.68;;;7.20;90.40;;;;;;5064703;28;20036;-67
2023/01/25 12:09:52;;;;;;;106.20;68.50;;;7.30;90.40;;;;;;5045775;28;20544;-67
2023/01/25 12:12:41;;;;;;;105.47;67.85;;;7.40;90.40;;;;;;5062211;28;20056;-69
2023/01/25 12:15:25;;;;;;;101.85;67.65;;;7.40;90.20;;;;;;5063779;28;20028;-67
2023/01/25 12:18:20;;;;;;;105.65;67.78;;;7.40;90.20;;;;;;5067626;28;20025;-66
2023/01/25 12:21:04;;;;;;;99.70;66.70;;;7.30;90.50;;;;;;5028969;28;20115;-67
2023/01/25 12:23:38;;;;;;;110.10;69.43;;;7.40;90.30;;;;;;5062889;28;20017;-67
2023/01/25 12:26:48;;;;;;;101.97;66.78;;;7.40;90.20;;;;;;5067474;28;20028;-69
2023/01/25 12:29:23;;;;;;;104.70;66.82;;;7.40;90.20;;;;;;5042194;28;20046;-67
2023/01/25 12:31:53;;;;;;;107.47;69.90;;;7.40;90.20;;;;;;5066366;28;20033;-65
2023/01/25 12:34:24;;;;;;;91.45;59.90;;;7.30;90.40;;;;;;5063623;28;20508;-66
2023/01/25 12:36:50;;;;;;;90.20;61.58;;;8.30;92.40;;;;;;5067399;28;20386;-66
2023/01/25 12:39:19;;;;;;;93.82;63.40;;;9.00;91.60;;;;;;5068115;28;20040;-67
2023/01/25 12:41:51;;;;;;;109.22;72.65;;;9.20;90.80;;;;;;5070447;28;20028;-66
2023/01/25 12:44:24;;;;;;;109.78;71.00;;;8.80;87.30;;;;;;5070736;28;20020;-65
2023/01/25 12:47:03;;;;;;;108.13;69.80;;;8.50;87.50;;;;;;5071522;28;20039;-64
2023/01/25 12:50:12;;;;;;;99.20;65.25;;;8.30;88.00;;;;;;5072554;28;20153;-64